createdAt,value
2023-08-12T00:24:56.222Z,57.4
2023-08-12T01:25:07.555Z,57.7
2023-08-12T02:25:18.414Z,57.9
2023-08-12T02:55:19.242Z,58
2023-08-12T03:25:19.668Z,58.1
2023-08-12T03:55:20.087Z,58.1
2023-08-12T04:25:20.520Z,58.1
2023-08-12T04:55:20.956Z,58.2
2023-08-12T05:25:21.505Z,58.5
2023-08-12T05:55:22.056Z,58.6
2023-08-12T06:25:22.457Z,59.1
2023-08-12T06:55:22.822Z,59.2
2023-08-12T07:55:33.662Z,59.3
2023-08-12T08:55:44.775Z,59.6
2023-08-12T09:25:45.669Z,59.5
2023-08-12T09:55:46.086Z,60.3
2023-08-12T10:25:46.825Z,61.5
2023-08-12T10:55:47.234Z,60.8
2023-08-12T11:25:47.646Z,61.5
2023-08-12T11:55:48.064Z,61.7
2023-08-12T12:25:48.481Z,61.2
2023-08-12T12:55:49.065Z,61.1
2023-08-12T13:25:49.509Z,60.7
2023-08-12T14:26:01.196Z,62.2
2023-08-12T15:26:12.357Z,61.2
2023-08-12T15:56:13.037Z,60.8
2023-08-12T16:26:13.465Z,60.5
2023-08-12T16:56:14.254Z,60.4
2023-08-12T17:26:14.742Z,60.7
2023-08-12T17:56:15.489Z,60.6
2023-08-12T18:26:15.934Z,60.5
2023-08-12T18:56:16.439Z,60.7
2023-08-12T19:26:16.855Z,60.7
2023-08-12T19:56:17.500Z,60.7
2023-08-12T20:26:17.905Z,60.4
2023-08-12T20:56:18.372Z,60.6
2023-08-12T21:26:18.839Z,60.5
2023-08-12T21:56:19.698Z,60.6
2023-08-12T22:26:20.160Z,60.8
2023-08-12T22:56:20.584Z,60.8
2023-08-12T23:26:21.028Z,60.8
2023-08-12T23:56:21.434Z,60.9
